Portada
METAR-TAF:

METAR-TAF

Aeropuertos :

El Cairo, Egipto

Aeropuerto Internacional de El Cairo

latitud: 30-08N, longitud: 031-24E, altitud: 64 m

Observación

El informe se hizo hace 38 minutos, a las 22:00 UTC
Viento 8 kt del norte
Temperatura 27°C
Humedad 79%
Presión 1011 hPa
Visibilidad: 6000 m

METAR: HECA 222200Z 35008KT 6000 NSC 27/23 Q1011 NOSIG

Hora: 00:38 (22:38 UTC)

Pronóstico

El informe se hizo hace 5 horas y 38 minutos, a las 17:00 UTC
Pronóstico válido del 22 a las 18 UTC al 23 a las 24 UTC
Viento 7 kt del norte
Visibilidad 10 km o más
Nubes dispersas a una altura de 2500 ft
Temporalmente
del 23 a las 02 UTC al 23 a las 06 UTC
Visibilidad: 4000 m
Cielo nuboso a una altura de 2500 ft
neblina

TAF: HECA 221700Z 2218/2324 35007KT 9999 SCT025 TEMPO 2302/2306 4000 BR BKN025

Observaciones y pronósticos meteorológicos de más de 4000 aeropuertos (mensajes METAR y TAF).

Los puntos amarillos y rojos representan las estaciones disponibles.

Ponga el ratón en el punto deseado para ver el nombre de la estación.

Haga clic para ver las observaciones y los pronósticos meteorológicos.

Para cambiar el mapa : haga clic en los botones verdes con una cruz de color negro para hacer un zoom, en el botón verde con un guión para alejar o en las flechas verdes para mapas adyacentes.


METAR-TAF: